METAR Data
IDs: Format: Raw Decoded Include TAF

Data at: 0200 UTC 25 Feb 2021

ESNN 250150Z AUTO VRB01KT 9999 BCFG SCT160/// M03/M04 Q1007